sensor_id;sensor_type;location;lat;lon;timestamp;P1;durP1;ratioP1;P2;durP2;ratioP2
7989;SDS011;4040;42.848;23.034;2024-01-11T00:01:27;9.57;;;3.70;;
7989;SDS011;4040;42.848;23.034;2024-01-11T00:03:54;7.70;;;6.93;;
7989;SDS011;4040;42.848;23.034;2024-01-11T00:06:22;14.57;;;5.60;;
7989;SDS011;4040;42.848;23.034;2024-01-11T00:08:49;10.40;;;6.23;;
7989;SDS011;4040;42.848;23.034;2024-01-11T00:11:17;3.10;;;2.80;;
7989;SDS011;4040;42.848;23.034;2024-01-11T00:13:46;2.97;;;2.80;;
7989;SDS011;4040;42.848;23.034;2024-01-11T00:16:13;4.27;;;3.77;;
7989;SDS011;4040;42.848;23.034;2024-01-11T00:18:41;3.53;;;3.23;;
7989;SDS011;4040;42.848;23.034;2024-01-11T00:21:10;5.47;;;4.17;;
7989;SDS011;4040;42.848;23.034;2024-01-11T00:23:37;8.53;;;3.30;;
7989;SDS011;4040;42.848;23.034;2024-01-11T00:26:05;8.30;;;5.03;;
7989;SDS011;4040;42.848;23.034;2024-01-11T00:28:32;4.30;;;3.73;;
7989;SDS011;4040;42.848;23.034;2024-01-11T00:31:01;6.30;;;4.30;;
7989;SDS011;4040;42.848;23.034;2024-01-11T00:33:29;6.30;;;4.00;;
7989;SDS011;4040;42.848;23.034;2024-01-11T00:35:56;5.77;;;3.93;;
7989;SDS011;4040;42.848;23.034;2024-01-11T00:38:23;7.17;;;4.13;;
7989;SDS011;4040;42.848;23.034;2024-01-11T00:40:51;3.50;;;3.23;;
7989;SDS011;4040;42.848;23.034;2024-01-11T00:43:18;3.63;;;3.33;;
7989;SDS011;4040;42.848;23.034;2024-01-11T00:45:46;7.03;;;3.30;;
7989;SDS011;4040;42.848;23.034;2024-01-11T00:48:15;8.03;;;4.63;;
7989;SDS011;4040;42.848;23.034;2024-01-11T00:50:42;4.90;;;3.20;;
7989;SDS011;4040;42.848;23.034;2024-01-11T00:53:10;3.67;;;3.10;;
7989;SDS011;4040;42.848;23.034;2024-01-11T00:55:39;7.30;;;4.17;;
7989;SDS011;4040;42.848;23.034;2024-01-11T00:58:07;6.03;;;4.27;;
7989;SDS011;4040;42.848;23.034;2024-01-11T01:00:34;8.70;;;2.50;;
7989;SDS011;4040;42.848;23.034;2024-01-11T01:03:02;3.30;;;3.00;;
7989;SDS011;4040;42.848;23.034;2024-01-11T01:05:31;6.00;;;4.33;;
7989;SDS011;4040;42.848;23.034;2024-01-11T01:07:58;3.93;;;3.63;;
7989;SDS011;4040;42.848;23.034;2024-01-11T01:10:26;9.03;;;4.87;;
7989;SDS011;4040;42.848;23.034;2024-01-11T01:12:53;6.10;;;4.80;;
7989;SDS011;4040;42.848;23.034;2024-01-11T01:15:21;5.90;;;3.90;;
7989;SDS011;4040;42.848;23.034;2024-01-11T01:17:48;2.40;;;2.20;;
7989;SDS011;4040;42.848;23.034;2024-01-11T01:20:16;4.50;;;3.20;;
7989;SDS011;4040;42.848;23.034;2024-01-11T01:22:44;2.97;;;2.27;;
7989;SDS011;4040;42.848;23.034;2024-01-11T01:25:12;2.87;;;2.60;;
7989;SDS011;4040;42.848;23.034;2024-01-11T01:27:39;2.60;;;2.40;;
7989;SDS011;4040;42.848;23.034;2024-01-11T01:30:07;3.87;;;2.53;;
7989;SDS011;4040;42.848;23.034;2024-01-11T01:32:35;2.57;;;1.87;;
7989;SDS011;4040;42.848;23.034;2024-01-11T01:35:02;1.40;;;1.37;;
7989;SDS011;4040;42.848;23.034;2024-01-11T01:37:30;2.23;;;2.03;;
7989;SDS011;4040;42.848;23.034;2024-01-11T01:39:59;6.00;;;3.53;;
7989;SDS011;4040;42.848;23.034;2024-01-11T01:42:27;4.37;;;4.03;;
7989;SDS011;4040;42.848;23.034;2024-01-11T01:44:55;2.63;;;2.43;;
7989;SDS011;4040;42.848;23.034;2024-01-11T01:47:22;2.67;;;2.47;;
7989;SDS011;4040;42.848;23.034;2024-01-11T01:49:50;3.53;;;2.83;;
7989;SDS011;4040;42.848;23.034;2024-01-11T01:52:18;3.13;;;2.83;;
7989;SDS011;4040;42.848;23.034;2024-01-11T01:54:46;8.83;;;4.63;;
7989;SDS011;4040;42.848;23.034;2024-01-11T01:57:16;6.23;;;3.17;;
7989;SDS011;4040;42.848;23.034;2024-01-11T01:59:48;6.87;;;4.07;;
7989;SDS011;4040;42.848;23.034;2024-01-11T02:02:18;6.70;;;3.10;;
7989;SDS011;4040;42.848;23.034;2024-01-11T02:04:46;4.27;;;3.43;;
7989;SDS011;4040;42.848;23.034;2024-01-11T02:07:14;2.77;;;2.57;;
7989;SDS011;4040;42.848;23.034;2024-01-11T02:09:42;6.20;;;3.87;;
7989;SDS011;4040;42.848;23.034;2024-01-11T02:12:10;4.90;;;4.00;;
7989;SDS011;4040;42.848;23.034;2024-01-11T02:14:41;2.20;;;2.00;;
7989;SDS011;4040;42.848;23.034;2024-01-11T02:17:09;3.20;;;2.60;;
7989;SDS011;4040;42.848;23.034;2024-01-11T02:19:36;4.03;;;2.90;;
7989;SDS011;4040;42.848;23.034;2024-01-11T02:22:05;5.67;;;2.73;;
7989;SDS011;4040;42.848;23.034;2024-01-11T02:24:41;3.57;;;3.27;;
7989;SDS011;4040;42.848;23.034;2024-01-11T02:27:08;3.13;;;2.67;;
7989;SDS011;4040;42.848;23.034;2024-01-11T02:29:36;3.37;;;3.07;;
7989;SDS011;4040;42.848;23.034;2024-01-11T02:32:03;1.97;;;1.87;;
7989;SDS011;4040;42.848;23.034;2024-01-11T02:34:31;4.57;;;3.17;;
7989;SDS011;4040;42.848;23.034;2024-01-11T02:36:59;16.87;;;4.17;;
7989;SDS011;4040;42.848;23.034;2024-01-11T02:39:27;3.87;;;1.93;;
7989;SDS011;4040;42.848;23.034;2024-01-11T02:41:56;2.47;;;2.27;;
7989;SDS011;4040;42.848;23.034;2024-01-11T02:44:24;2.20;;;2.07;;
7989;SDS011;4040;42.848;23.034;2024-01-11T02:46:52;5.63;;;2.40;;
7989;SDS011;4040;42.848;23.034;2024-01-11T02:49:19;3.57;;;2.70;;
7989;SDS011;4040;42.848;23.034;2024-01-11T02:51:47;5.13;;;2.77;;
7989;SDS011;4040;42.848;23.034;2024-01-11T02:54:14;3.23;;;2.93;;
7989;SDS011;4040;42.848;23.034;2024-01-11T02:56:42;6.33;;;3.23;;
7989;SDS011;4040;42.848;23.034;2024-01-11T02:59:11;3.60;;;2.87;;
7989;SDS011;4040;42.848;23.034;2024-01-11T03:01:38;4.90;;;3.43;;
7989;SDS011;4040;42.848;23.034;2024-01-11T03:04:05;3.30;;;2.93;;
7989;SDS011;4040;42.848;23.034;2024-01-11T03:06:33;2.03;;;1.93;;
7989;SDS011;4040;42.848;23.034;2024-01-11T03:09:00;2.83;;;2.63;;
7989;SDS011;4040;42.848;23.034;2024-01-11T03:11:28;2.57;;;2.37;;
7989;SDS011;4040;42.848;23.034;2024-01-11T03:13:55;9.07;;;1.97;;
7989;SDS011;4040;42.848;23.034;2024-01-11T03:16:24;3.50;;;2.37;;
7989;SDS011;4040;42.848;23.034;2024-01-11T03:18:51;3.37;;;3.07;;
7989;SDS011;4040;42.848;23.034;2024-01-11T03:21:19;2.40;;;1.90;;
7989;SDS011;4040;42.848;23.034;2024-01-11T03:23:46;5.13;;;3.53;;
7989;SDS011;4040;42.848;23.034;2024-01-11T03:26:14;3.70;;;3.37;;
7989;SDS011;4040;42.848;23.034;2024-01-11T03:28:42;4.83;;;1.93;;
7989;SDS011;4040;42.848;23.034;2024-01-11T03:31:10;2.77;;;2.57;;
7989;SDS011;4040;42.848;23.034;2024-01-11T03:33:39;5.60;;;3.47;;
7989;SDS011;4040;42.848;23.034;2024-01-11T03:36:07;6.07;;;3.60;;
7989;SDS011;4040;42.848;23.034;2024-01-11T03:38:35;1.83;;;1.73;;
7989;SDS011;4040;42.848;23.034;2024-01-11T03:41:07;2.03;;;1.40;;
7989;SDS011;4040;42.848;23.034;2024-01-11T03:43:35;2.87;;;2.07;;
7989;SDS011;4040;42.848;23.034;2024-01-11T03:46:03;2.03;;;1.63;;
7989;SDS011;4040;42.848;23.034;2024-01-11T03:48:30;1.87;;;1.77;;
7989;SDS011;4040;42.848;23.034;2024-01-11T03:50:59;2.40;;;2.20;;
7989;SDS011;4040;42.848;23.034;2024-01-11T03:53:26;2.30;;;2.00;;
7989;SDS011;4040;42.848;23.034;2024-01-11T03:55:54;2.67;;;2.30;;
7989;SDS011;4040;42.848;23.034;2024-01-11T03:58:22;16.27;;;3.20;;
7989;SDS011;4040;42.848;23.034;2024-01-11T04:00:49;9.17;;;5.90;;
7989;SDS011;4040;42.848;23.034;2024-01-11T04:03:16;2.97;;;2.53;;
7989;SDS011;4040;42.848;23.034;2024-01-11T04:05:44;7.07;;;4.00;;
7989;SDS011;4040;42.848;23.034;2024-01-11T04:08:13;4.50;;;3.33;;
7989;SDS011;4040;42.848;23.034;2024-01-11T04:10:40;1.53;;;1.43;;
7989;SDS011;4040;42.848;23.034;2024-01-11T04:13:08;1.87;;;1.77;;
7989;SDS011;4040;42.848;23.034;2024-01-11T04:15:35;7.07;;;2.70;;
7989;SDS011;4040;42.848;23.034;2024-01-11T04:18:03;5.60;;;4.97;;
7989;SDS011;4040;42.848;23.034;2024-01-11T04:20:31;14.83;;;7.30;;
7989;SDS011;4040;42.848;23.034;2024-01-11T04:22:58;11.77;;;8.37;;
7989;SDS011;4040;42.848;23.034;2024-01-11T04:25:27;16.80;;;7.60;;
7989;SDS011;4040;42.848;23.034;2024-01-11T04:27:54;11.43;;;8.33;;
7989;SDS011;4040;42.848;23.034;2024-01-11T04:30:22;8.70;;;4.93;;
7989;SDS011;4040;42.848;23.034;2024-01-11T04:32:49;5.73;;;3.87;;
7989;SDS011;4040;42.848;23.034;2024-01-11T04:35:17;8.17;;;4.93;;
7989;SDS011;4040;42.848;23.034;2024-01-11T04:37:44;6.23;;;5.17;;
7989;SDS011;4040;42.848;23.034;2024-01-11T04:40:12;5.43;;;4.17;;
7989;SDS011;4040;42.848;23.034;2024-01-11T04:42:41;5.37;;;3.73;;
7989;SDS011;4040;42.848;23.034;2024-01-11T04:45:08;3.70;;;3.00;;
7989;SDS011;4040;42.848;23.034;2024-01-11T04:47:36;3.03;;;2.77;;
7989;SDS011;4040;42.848;23.034;2024-01-11T04:50:04;7.17;;;3.00;;
7989;SDS011;4040;42.848;23.034;2024-01-11T04:52:32;2.33;;;2.13;;
7989;SDS011;4040;42.848;23.034;2024-01-11T04:55:00;10.33;;;3.30;;
7989;SDS011;4040;42.848;23.034;2024-01-11T04:57:28;5.13;;;3.63;;
7989;SDS011;4040;42.848;23.034;2024-01-11T04:59:56;12.07;;;7.50;;
7989;SDS011;4040;42.848;23.034;2024-01-11T05:02:24;10.83;;;4.67;;
7989;SDS011;4040;42.848;23.034;2024-01-11T05:04:51;6.13;;;3.53;;
7989;SDS011;4040;42.848;23.034;2024-01-11T05:07:19;8.27;;;3.63;;
7989;SDS011;4040;42.848;23.034;2024-01-11T05:09:46;3.07;;;2.73;;
7989;SDS011;4040;42.848;23.034;2024-01-11T05:12:14;5.03;;;3.53;;
7989;SDS011;4040;42.848;23.034;2024-01-11T05:14:42;7.47;;;4.97;;
7989;SDS011;4040;42.848;23.034;2024-01-11T05:17:10;5.73;;;3.13;;
7989;SDS011;4040;42.848;23.034;2024-01-11T05:19:38;7.10;;;4.63;;
7989;SDS011;4040;42.848;23.034;2024-01-11T05:22:05;3.93;;;3.53;;
7989;SDS011;4040;42.848;23.034;2024-01-11T05:24:33;4.00;;;2.90;;
7989;SDS011;4040;42.848;23.034;2024-01-11T05:27:01;4.90;;;3.30;;
7989;SDS011;4040;42.848;23.034;2024-01-11T05:29:29;3.33;;;3.10;;
7989;SDS011;4040;42.848;23.034;2024-01-11T05:31:57;3.20;;;2.90;;
7989;SDS011;4040;42.848;23.034;2024-01-11T05:34:26;5.73;;;3.27;;
7989;SDS011;4040;42.848;23.034;2024-01-11T05:36:53;5.80;;;4.57;;
7989;SDS011;4040;42.848;23.034;2024-01-11T05:39:21;5.43;;;4.97;;
7989;SDS011;4040;42.848;23.034;2024-01-11T05:41:48;8.57;;;6.73;;
7989;SDS011;4040;42.848;23.034;2024-01-11T05:44:16;25.30;;;14.03;;
7989;SDS011;4040;42.848;23.034;2024-01-11T05:46:43;24.07;;;14.17;;
7989;SDS011;4040;42.848;23.034;2024-01-11T05:49:11;24.50;;;14.13;;
7989;SDS011;4040;42.848;23.034;2024-01-11T05:51:40;10.63;;;7.90;;
7989;SDS011;4040;42.848;23.034;2024-01-11T05:54:07;8.73;;;6.30;;
7989;SDS011;4040;42.848;23.034;2024-01-11T05:56:35;9.50;;;7.30;;
7989;SDS011;4040;42.848;23.034;2024-01-11T05:59:02;9.97;;;6.30;;
7989;SDS011;4040;42.848;23.034;2024-01-11T06:01:48;13.63;;;6.40;;
7989;SDS011;4040;42.848;23.034;2024-01-11T06:04:15;8.47;;;5.07;;
7989;SDS011;4040;42.848;23.034;2024-01-11T06:06:44;8.53;;;5.93;;
7989;SDS011;4040;42.848;23.034;2024-01-11T06:09:12;8.67;;;5.20;;
7989;SDS011;4040;42.848;23.034;2024-01-11T06:11:39;12.83;;;7.13;;
7989;SDS011;4040;42.848;23.034;2024-01-11T06:14:07;5.20;;;4.67;;
7989;SDS011;4040;42.848;23.034;2024-01-11T06:16:34;10.27;;;4.67;;
7989;SDS011;4040;42.848;23.034;2024-01-11T06:19:02;7.70;;;3.03;;
7989;SDS011;4040;42.848;23.034;2024-01-11T06:21:29;6.83;;;4.47;;
7989;SDS011;4040;42.848;23.034;2024-01-11T06:23:58;7.17;;;4.67;;
7989;SDS011;4040;42.848;23.034;2024-01-11T06:26:25;4.83;;;2.80;;
7989;SDS011;4040;42.848;23.034;2024-01-11T06:28:53;7.03;;;4.00;;
7989;SDS011;4040;42.848;23.034;2024-01-11T06:31:20;2.63;;;2.43;;
7989;SDS011;4040;42.848;23.034;2024-01-11T06:33:48;4.27;;;3.13;;
7989;SDS011;4040;42.848;23.034;2024-01-11T06:36:15;3.70;;;2.40;;
7989;SDS011;4040;42.848;23.034;2024-01-11T06:38:43;3.07;;;2.63;;
7989;SDS011;4040;42.848;23.034;2024-01-11T06:41:12;5.20;;;3.73;;
7989;SDS011;4040;42.848;23.034;2024-01-11T06:43:41;2.33;;;2.13;;
7989;SDS011;4040;42.848;23.034;2024-01-11T06:46:08;11.27;;;3.23;;
7989;SDS011;4040;42.848;23.034;2024-01-11T06:48:36;3.20;;;2.90;;
7989;SDS011;4040;42.848;23.034;2024-01-11T06:51:03;5.40;;;3.50;;
7989;SDS011;4040;42.848;23.034;2024-01-11T06:53:31;3.97;;;3.50;;
7989;SDS011;4040;42.848;23.034;2024-01-11T06:55:58;4.47;;;4.03;;
7989;SDS011;4040;42.848;23.034;2024-01-11T06:58:27;15.30;;;5.73;;
7989;SDS011;4040;42.848;23.034;2024-01-11T07:00:55;8.80;;;5.93;;
7989;SDS011;4040;42.848;23.034;2024-01-11T07:03:22;6.83;;;4.63;;
7989;SDS011;4040;42.848;23.034;2024-01-11T07:05:51;7.03;;;4.87;;
7989;SDS011;4040;42.848;23.034;2024-01-11T07:08:18;22.90;;;9.30;;
7989;SDS011;4040;42.848;23.034;2024-01-11T07:10:46;22.50;;;9.23;;
7989;SDS011;4040;42.848;23.034;2024-01-11T07:13:13;22.10;;;9.30;;
7989;SDS011;4040;42.848;23.034;2024-01-11T07:15:43;31.63;;;12.63;;
7989;SDS011;4040;42.848;23.034;2024-01-11T07:18:11;35.30;;;12.87;;
7989;SDS011;4040;42.848;23.034;2024-01-11T07:20:38;31.37;;;15.87;;
7989;SDS011;4040;42.848;23.034;2024-01-11T07:23:06;13.80;;;9.03;;
7989;SDS011;4040;42.848;23.034;2024-01-11T07:25:33;15.33;;;8.50;;
7989;SDS011;4040;42.848;23.034;2024-01-11T07:28:01;11.77;;;6.73;;
7989;SDS011;4040;42.848;23.034;2024-01-11T07:30:29;18.43;;;9.23;;
7989;SDS011;4040;42.848;23.034;2024-01-11T07:32:57;14.83;;;9.27;;
7989;SDS011;4040;42.848;23.034;2024-01-11T07:35:25;18.83;;;9.67;;
7989;SDS011;4040;42.848;23.034;2024-01-11T07:37:53;19.37;;;9.27;;
7989;SDS011;4040;42.848;23.034;2024-01-11T07:40:20;12.77;;;6.77;;
7989;SDS011;4040;42.848;23.034;2024-01-11T07:42:48;18.60;;;11.47;;
7989;SDS011;4040;42.848;23.034;2024-01-11T07:45:15;11.67;;;8.03;;
7989;SDS011;4040;42.848;23.034;2024-01-11T07:47:43;15.30;;;10.07;;
7989;SDS011;4040;42.848;23.034;2024-01-11T07:50:11;16.83;;;8.23;;
7989;SDS011;4040;42.848;23.034;2024-01-11T07:52:39;17.77;;;9.50;;
7989;SDS011;4040;42.848;23.034;2024-01-11T07:55:08;16.80;;;9.87;;
7989;SDS011;4040;42.848;23.034;2024-01-11T07:57:38;15.03;;;9.17;;
7989;SDS011;4040;42.848;23.034;2024-01-11T08:00:06;14.93;;;9.03;;
7989;SDS011;4040;42.848;23.034;2024-01-11T08:02:34;16.87;;;10.33;;
7989;SDS011;4040;42.848;23.034;2024-01-11T08:05:03;17.47;;;9.73;;
7989;SDS011;4040;42.848;23.034;2024-01-11T08:07:33;18.77;;;9.93;;
7989;SDS011;4040;42.848;23.034;2024-01-11T08:10:00;18.50;;;10.83;;
7989;SDS011;4040;42.848;23.034;2024-01-11T08:12:29;21.67;;;11.23;;
7989;SDS011;4040;42.848;23.034;2024-01-11T08:14:57;18.97;;;10.93;;
7989;SDS011;4040;42.848;23.034;2024-01-11T08:17:24;16.17;;;8.73;;
7989;SDS011;4040;42.848;23.034;2024-01-11T08:19:52;20.87;;;10.50;;
7989;SDS011;4040;42.848;23.034;2024-01-11T08:22:20;24.60;;;12.03;;
7989;SDS011;4040;42.848;23.034;2024-01-11T08:24:49;17.87;;;9.90;;
7989;SDS011;4040;42.848;23.034;2024-01-11T08:27:17;18.13;;;9.17;;
7989;SDS011;4040;42.848;23.034;2024-01-11T08:29:44;15.67;;;9.07;;
7989;SDS011;4040;42.848;23.034;2024-01-11T08:32:12;19.23;;;11.20;;
7989;SDS011;4040;42.848;23.034;2024-01-11T08:34:39;16.00;;;9.43;;
7989;SDS011;4040;42.848;23.034;2024-01-11T08:37:07;14.03;;;8.60;;
7989;SDS011;4040;42.848;23.034;2024-01-11T08:39:34;12.10;;;6.80;;
7989;SDS011;4040;42.848;23.034;2024-01-11T08:42:03;18.20;;;8.90;;
7989;SDS011;4040;42.848;23.034;2024-01-11T08:44:31;14.40;;;8.77;;
7989;SDS011;4040;42.848;23.034;2024-01-11T08:46:58;13.77;;;7.50;;
7989;SDS011;4040;42.848;23.034;2024-01-11T08:49:27;10.53;;;6.60;;
7989;SDS011;4040;42.848;23.034;2024-01-11T08:51:55;12.03;;;7.03;;
7989;SDS011;4040;42.848;23.034;2024-01-11T08:54:22;15.50;;;8.60;;
7989;SDS011;4040;42.848;23.034;2024-01-11T08:56:50;12.37;;;8.10;;
7989;SDS011;4040;42.848;23.034;2024-01-11T08:59:19;14.27;;;9.63;;
7989;SDS011;4040;42.848;23.034;2024-01-11T09:01:50;16.33;;;9.10;;
7989;SDS011;4040;42.848;23.034;2024-01-11T09:04:17;17.53;;;10.10;;
7989;SDS011;4040;42.848;23.034;2024-01-11T09:06:45;11.90;;;6.63;;
7989;SDS011;4040;42.848;23.034;2024-01-11T09:09:12;20.03;;;10.00;;
7989;SDS011;4040;42.848;23.034;2024-01-11T09:11:40;15.17;;;7.40;;
7989;SDS011;4040;42.848;23.034;2024-01-11T09:14:08;27.23;;;15.63;;
7989;SDS011;4040;42.848;23.034;2024-01-11T09:16:39;18.00;;;10.43;;
7989;SDS011;4040;42.848;23.034;2024-01-11T09:19:07;15.07;;;9.20;;
7989;SDS011;4040;42.848;23.034;2024-01-11T09:21:34;6.53;;;4.93;;
7989;SDS011;4040;42.848;23.034;2024-01-11T09:24:02;9.77;;;5.97;;
7989;SDS011;4040;42.848;23.034;2024-01-11T09:26:29;9.47;;;4.80;;
7989;SDS011;4040;42.848;23.034;2024-01-11T09:28:57;16.23;;;7.70;;
7989;SDS011;4040;42.848;23.034;2024-01-11T09:31:26;9.48;;;5.20;;
7989;SDS011;4040;42.848;23.034;2024-01-11T09:33:54;8.37;;;5.33;;
7989;SDS011;4040;42.848;23.034;2024-01-11T09:36:22;5.73;;;4.50;;
7989;SDS011;4040;42.848;23.034;2024-01-11T09:38:50;15.60;;;8.70;;
7989;SDS011;4040;42.848;23.034;2024-01-11T09:41:17;35.47;;;23.53;;
7989;SDS011;4040;42.848;23.034;2024-01-11T09:43:45;16.73;;;12.27;;
7989;SDS011;4040;42.848;23.034;2024-01-11T09:46:16;16.50;;;7.20;;
7989;SDS011;4040;42.848;23.034;2024-01-11T09:48:43;9.70;;;6.73;;
7989;SDS011;4040;42.848;23.034;2024-01-11T09:51:15;9.73;;;5.10;;
7989;SDS011;4040;42.848;23.034;2024-01-11T09:53:43;10.17;;;5.90;;
7989;SDS011;4040;42.848;23.034;2024-01-11T09:56:10;22.00;;;7.10;;
7989;SDS011;4040;42.848;23.034;2024-01-11T09:58:38;8.83;;;5.60;;
7989;SDS011;4040;42.848;23.034;2024-01-11T10:01:14;12.90;;;5.40;;
7989;SDS011;4040;42.848;23.034;2024-01-11T10:03:41;10.23;;;5.60;;
7989;SDS011;4040;42.848;23.034;2024-01-11T10:06:08;10.37;;;6.27;;
7989;SDS011;4040;42.848;23.034;2024-01-11T10:08:38;18.27;;;9.50;;
7989;SDS011;4040;42.848;23.034;2024-01-11T10:11:06;26.75;;;12.38;;
7989;SDS011;4040;42.848;23.034;2024-01-11T10:13:33;11.32;;;7.18;;
7989;SDS011;4040;42.848;23.034;2024-01-11T10:16:08;7.97;;;6.50;;
7989;SDS011;4040;42.848;23.034;2024-01-11T10:18:38;7.57;;;5.25;;
7989;SDS011;4040;42.848;23.034;2024-01-11T10:21:06;6.93;;;4.50;;
7989;SDS011;4040;42.848;23.034;2024-01-11T10:23:35;7.10;;;4.15;;
7989;SDS011;4040;42.848;23.034;2024-01-11T10:26:05;5.82;;;4.32;;
7989;SDS011;4040;42.848;23.034;2024-01-11T10:28:34;13.25;;;6.45;;
7989;SDS011;4040;42.848;23.034;2024-01-11T10:31:03;7.93;;;5.53;;
7989;SDS011;4040;42.848;23.034;2024-01-11T10:33:32;13.35;;;7.53;;
7989;SDS011;4040;42.848;23.034;2024-01-11T10:36:01;13.50;;;7.95;;
7989;SDS011;4040;42.848;23.034;2024-01-11T10:38:29;8.67;;;5.60;;
7989;SDS011;4040;42.848;23.034;2024-01-11T10:40:58;9.50;;;6.17;;
7989;SDS011;4040;42.848;23.034;2024-01-11T10:43:28;4.43;;;3.87;;
7989;SDS011;4040;42.848;23.034;2024-01-11T10:45:59;8.87;;;5.47;;
7989;SDS011;4040;42.848;23.034;2024-01-11T10:48:30;6.10;;;4.90;;
7989;SDS011;4040;42.848;23.034;2024-01-11T10:51:00;9.23;;;4.60;;
7989;SDS011;4040;42.848;23.034;2024-01-11T10:53:30;10.50;;;6.43;;
7989;SDS011;4040;42.848;23.034;2024-01-11T10:56:03;11.70;;;6.80;;
7989;SDS011;4040;42.848;23.034;2024-01-11T10:58:34;10.07;;;6.13;;
7989;SDS011;4040;42.848;23.034;2024-01-11T11:01:02;8.60;;;4.00;;
7989;SDS011;4040;42.848;23.034;2024-01-11T11:03:30;9.10;;;3.97;;
7989;SDS011;4040;42.848;23.034;2024-01-11T11:06:00;9.77;;;4.57;;
7989;SDS011;4040;42.848;23.034;2024-01-11T11:08:28;8.18;;;4.90;;
7989;SDS011;4040;42.848;23.034;2024-01-11T11:10:55;6.25;;;4.03;;
7989;SDS011;4040;42.848;23.034;2024-01-11T11:13:23;5.77;;;3.83;;
7989;SDS011;4040;42.848;23.034;2024-01-11T11:15:53;5.77;;;4.23;;
7989;SDS011;4040;42.848;23.034;2024-01-11T11:18:22;7.07;;;4.00;;
7989;SDS011;4040;42.848;23.034;2024-01-11T11:20:51;18.98;;;9.13;;
7989;SDS011;4040;42.848;23.034;2024-01-11T11:23:19;12.00;;;5.70;;
7989;SDS011;4040;42.848;23.034;2024-01-11T11:25:47;14.57;;;5.95;;
7989;SDS011;4040;42.848;23.034;2024-01-11T11:28:16;18.48;;;8.23;;
7989;SDS011;4040;42.848;23.034;2024-01-11T11:30:44;9.32;;;4.82;;
7989;SDS011;4040;42.848;23.034;2024-01-11T11:33:18;6.57;;;3.60;;
7989;SDS011;4040;42.848;23.034;2024-01-11T11:35:47;31.30;;;12.73;;
7989;SDS011;4040;42.848;23.034;2024-01-11T11:38:18;9.32;;;4.50;;
7989;SDS011;4040;42.848;23.034;2024-01-11T11:40:47;6.70;;;3.47;;
7989;SDS011;4040;42.848;23.034;2024-01-11T11:43:16;7.33;;;3.90;;
7989;SDS011;4040;42.848;23.034;2024-01-11T11:45:45;14.87;;;6.13;;
7989;SDS011;4040;42.848;23.034;2024-01-11T11:51:18;19.10;;;8.80;;
7989;SDS011;4040;42.848;23.034;2024-01-11T11:53:46;16.27;;;7.87;;
7989;SDS011;4040;42.848;23.034;2024-01-11T11:56:16;14.30;;;5.30;;
7989;SDS011;4040;42.848;23.034;2024-01-11T11:58:44;16.00;;;7.25;;
7989;SDS011;4040;42.848;23.034;2024-01-11T12:01:13;8.23;;;3.88;;
7989;SDS011;4040;42.848;23.034;2024-01-11T12:03:43;4.97;;;3.50;;
7989;SDS011;4040;42.848;23.034;2024-01-11T12:06:16;14.10;;;5.77;;
7989;SDS011;4040;42.848;23.034;2024-01-11T12:08:46;12.53;;;5.43;;
7989;SDS011;4040;42.848;23.034;2024-01-11T12:11:14;7.27;;;3.77;;
7989;SDS011;4040;42.848;23.034;2024-01-11T12:13:44;6.00;;;3.33;;
7989;SDS011;4040;42.848;23.034;2024-01-11T12:16:13;6.03;;;3.27;;
7989;SDS011;4040;42.848;23.034;2024-01-11T12:18:40;7.27;;;3.50;;
7989;SDS011;4040;42.848;23.034;2024-01-11T12:21:08;4.23;;;3.17;;
7989;SDS011;4040;42.848;23.034;2024-01-11T12:23:38;5.30;;;2.80;;
7989;SDS011;4040;42.848;23.034;2024-01-11T12:26:06;3.10;;;2.17;;
7989;SDS011;4040;42.848;23.034;2024-01-11T12:28:38;5.93;;;3.07;;
7989;SDS011;4040;42.848;23.034;2024-01-11T12:31:07;4.67;;;3.17;;
7989;SDS011;4040;42.848;23.034;2024-01-11T12:33:34;7.70;;;3.93;;
7989;SDS011;4040;42.848;23.034;2024-01-11T12:36:04;7.03;;;3.90;;
7989;SDS011;4040;42.848;23.034;2024-01-11T12:38:34;5.87;;;4.20;;
7989;SDS011;4040;42.848;23.034;2024-01-11T12:41:03;5.93;;;4.10;;
7989;SDS011;4040;42.848;23.034;2024-01-11T12:43:31;8.27;;;4.57;;
7989;SDS011;4040;42.848;23.034;2024-01-11T12:45:59;5.00;;;3.40;;
7989;SDS011;4040;42.848;23.034;2024-01-11T12:48:27;5.23;;;2.93;;
7989;SDS011;4040;42.848;23.034;2024-01-11T12:50:56;7.23;;;3.90;;
7989;SDS011;4040;42.848;23.034;2024-01-11T12:53:23;7.43;;;4.03;;
7989;SDS011;4040;42.848;23.034;2024-01-11T12:56:03;8.20;;;3.97;;
7989;SDS011;4040;42.848;23.034;2024-01-11T12:58:33;8.77;;;4.37;;
7989;SDS011;4040;42.848;23.034;2024-01-11T13:01:01;9.47;;;4.70;;
7989;SDS011;4040;42.848;23.034;2024-01-11T13:03:29;14.57;;;6.30;;
7989;SDS011;4040;42.848;23.034;2024-01-11T13:05:57;8.13;;;4.27;;
7989;SDS011;4040;42.848;23.034;2024-01-11T13:08:24;7.00;;;4.27;;
7989;SDS011;4040;42.848;23.034;2024-01-11T13:10:52;10.13;;;4.67;;
7989;SDS011;4040;42.848;23.034;2024-01-11T13:13:21;12.67;;;5.60;;
7989;SDS011;4040;42.848;23.034;2024-01-11T13:15:49;8.40;;;4.87;;
7989;SDS011;4040;42.848;23.034;2024-01-11T13:18:17;12.47;;;6.50;;
7989;SDS011;4040;42.848;23.034;2024-01-11T13:20:44;8.43;;;4.37;;
7989;SDS011;4040;42.848;23.034;2024-01-11T13:23:13;8.57;;;4.53;;
7989;SDS011;4040;42.848;23.034;2024-01-11T13:25:41;6.87;;;3.70;;
7989;SDS011;4040;42.848;23.034;2024-01-11T13:28:08;9.70;;;4.97;;
7989;SDS011;4040;42.848;23.034;2024-01-11T13:30:38;8.70;;;4.37;;
7989;SDS011;4040;42.848;23.034;2024-01-11T13:33:06;8.87;;;4.50;;
7989;SDS011;4040;42.848;23.034;2024-01-11T13:35:34;10.13;;;5.30;;
7989;SDS011;4040;42.848;23.034;2024-01-11T13:38:02;10.47;;;4.90;;
7989;SDS011;4040;42.848;23.034;2024-01-11T13:40:29;5.97;;;4.20;;
7989;SDS011;4040;42.848;23.034;2024-01-11T13:42:57;5.77;;;3.40;;
7989;SDS011;4040;42.848;23.034;2024-01-11T13:45:26;5.77;;;3.60;;
7989;SDS011;4040;42.848;23.034;2024-01-11T13:47:55;6.33;;;3.53;;
7989;SDS011;4040;42.848;23.034;2024-01-11T13:50:22;6.30;;;3.17;;
7989;SDS011;4040;42.848;23.034;2024-01-11T13:52:50;6.43;;;3.77;;
7989;SDS011;4040;42.848;23.034;2024-01-11T13:55:18;8.63;;;4.17;;
7989;SDS011;4040;42.848;23.034;2024-01-11T13:57:46;5.50;;;4.30;;
7989;SDS011;4040;42.848;23.034;2024-01-11T14:00:15;5.07;;;3.93;;
7989;SDS011;4040;42.848;23.034;2024-01-11T14:02:43;4.90;;;3.70;;
7989;SDS011;4040;42.848;23.034;2024-01-11T14:05:12;7.57;;;4.30;;
7989;SDS011;4040;42.848;23.034;2024-01-11T14:07:42;9.67;;;5.30;;
7989;SDS011;4040;42.848;23.034;2024-01-11T14:10:10;13.20;;;5.00;;
7989;SDS011;4040;42.848;23.034;2024-01-11T14:12:39;14.47;;;5.87;;
7989;SDS011;4040;42.848;23.034;2024-01-11T14:15:07;14.93;;;6.50;;
7989;SDS011;4040;42.848;23.034;2024-01-11T14:17:38;11.93;;;4.67;;
7989;SDS011;4040;42.848;23.034;2024-01-11T14:20:06;19.80;;;7.57;;
7989;SDS011;4040;42.848;23.034;2024-01-11T14:22:39;10.60;;;4.83;;
7989;SDS011;4040;42.848;23.034;2024-01-11T14:25:07;10.37;;;4.63;;
7989;SDS011;4040;42.848;23.034;2024-01-11T14:27:36;16.57;;;5.63;;
7989;SDS011;4040;42.848;23.034;2024-01-11T14:30:04;12.73;;;6.40;;
7989;SDS011;4040;42.848;23.034;2024-01-11T14:32:33;10.83;;;5.50;;
7989;SDS011;4040;42.848;23.034;2024-01-11T14:35:00;13.20;;;5.73;;
7989;SDS011;4040;42.848;23.034;2024-01-11T14:37:29;13.23;;;5.80;;
7989;SDS011;4040;42.848;23.034;2024-01-11T14:39:59;12.77;;;5.93;;
7989;SDS011;4040;42.848;23.034;2024-01-11T14:42:26;10.87;;;5.87;;
7989;SDS011;4040;42.848;23.034;2024-01-11T14:44:54;12.73;;;5.33;;
7989;SDS011;4040;42.848;23.034;2024-01-11T14:47:22;11.13;;;5.80;;
7989;SDS011;4040;42.848;23.034;2024-01-11T14:49:49;18.60;;;6.33;;
7989;SDS011;4040;42.848;23.034;2024-01-11T14:52:17;9.13;;;5.17;;
7989;SDS011;4040;42.848;23.034;2024-01-11T14:54:45;14.53;;;3.67;;
7989;SDS011;4040;42.848;23.034;2024-01-11T14:57:14;6.50;;;3.87;;
7989;SDS011;4040;42.848;23.034;2024-01-11T14:59:42;7.27;;;4.13;;
7989;SDS011;4040;42.848;23.034;2024-01-11T15:02:10;7.30;;;4.67;;
7989;SDS011;4040;42.848;23.034;2024-01-11T15:04:37;15.77;;;6.80;;